sensor_id;sensor_type;location;lat;lon;timestamp;P1;durP1;ratioP1;P2;durP2;ratioP2
15216;SDS011;7711;46.634;14.318;2023-03-01T00:00:04;34.40;;;19.70;;
15216;SDS011;7711;46.634;14.318;2023-03-01T00:02:33;29.97;;;18.97;;
15216;SDS011;7711;46.634;14.318;2023-03-01T00:05:01;29.23;;;17.87;;
15216;SDS011;7711;46.634;14.318;2023-03-01T00:07:29;27.47;;;17.53;;
15216;SDS011;7711;46.634;14.318;2023-03-01T00:09:56;27.57;;;17.83;;
15216;SDS011;7711;46.634;14.318;2023-03-01T00:12:23;28.90;;;18.10;;
15216;SDS011;7711;46.634;14.318;2023-03-01T00:14:50;28.73;;;17.50;;
15216;SDS011;7711;46.634;14.318;2023-03-01T00:17:17;30.43;;;17.97;;
15216;SDS011;7711;46.634;14.318;2023-03-01T00:19:44;27.40;;;17.67;;
15216;SDS011;7711;46.634;14.318;2023-03-01T00:22:12;28.63;;;17.47;;
15216;SDS011;7711;46.634;14.318;2023-03-01T00:24:39;28.03;;;17.80;;
15216;SDS011;7711;46.634;14.318;2023-03-01T00:27:06;32.87;;;18.57;;
15216;SDS011;7711;46.634;14.318;2023-03-01T00:29:33;28.43;;;18.67;;
15216;SDS011;7711;46.634;14.318;2023-03-01T00:32:00;30.20;;;18.00;;
15216;SDS011;7711;46.634;14.318;2023-03-01T00:34:28;29.50;;;17.00;;
15216;SDS011;7711;46.634;14.318;2023-03-01T00:36:55;33.57;;;17.67;;
15216;SDS011;7711;46.634;14.318;2023-03-01T00:39:31;28.37;;;17.30;;
15216;SDS011;7711;46.634;14.318;2023-03-01T00:41:59;29.87;;;16.47;;
15216;SDS011;7711;46.634;14.318;2023-03-01T00:44:26;27.03;;;17.53;;
15216;SDS011;7711;46.634;14.318;2023-03-01T00:46:53;30.43;;;17.27;;
15216;SDS011;7711;46.634;14.318;2023-03-01T00:49:20;28.73;;;16.93;;
15216;SDS011;7711;46.634;14.318;2023-03-01T00:51:49;29.50;;;17.47;;
15216;SDS011;7711;46.634;14.318;2023-03-01T00:54:16;30.83;;;17.13;;
15216;SDS011;7711;46.634;14.318;2023-03-01T00:56:44;27.50;;;16.37;;
15216;SDS011;7711;46.634;14.318;2023-03-01T00:59:11;27.93;;;17.90;;
15216;SDS011;7711;46.634;14.318;2023-03-01T01:01:38;28.20;;;17.70;;
15216;SDS011;7711;46.634;14.318;2023-03-01T01:04:06;27.10;;;16.33;;
15216;SDS011;7711;46.634;14.318;2023-03-01T01:06:35;27.80;;;17.50;;
15216;SDS011;7711;46.634;14.318;2023-03-01T01:09:05;27.67;;;15.67;;
15216;SDS011;7711;46.634;14.318;2023-03-01T01:11:33;27.27;;;17.17;;
15216;SDS011;7711;46.634;14.318;2023-03-01T01:14:03;31.83;;;17.73;;
15216;SDS011;7711;46.634;14.318;2023-03-01T01:16:30;31.70;;;17.20;;
15216;SDS011;7711;46.634;14.318;2023-03-01T01:18:57;28.07;;;17.50;;
15216;SDS011;7711;46.634;14.318;2023-03-01T01:21:24;24.93;;;16.73;;
15216;SDS011;7711;46.634;14.318;2023-03-01T01:23:52;31.63;;;19.60;;
15216;SDS011;7711;46.634;14.318;2023-03-01T01:26:20;29.27;;;17.90;;
15216;SDS011;7711;46.634;14.318;2023-03-01T01:28:49;33.43;;;18.73;;
15216;SDS011;7711;46.634;14.318;2023-03-01T01:31:18;27.37;;;18.07;;
15216;SDS011;7711;46.634;14.318;2023-03-01T01:33:48;29.37;;;18.13;;
15216;SDS011;7711;46.634;14.318;2023-03-01T01:36:16;28.70;;;18.37;;
15216;SDS011;7711;46.634;14.318;2023-03-01T01:38:43;29.20;;;17.80;;
15216;SDS011;7711;46.634;14.318;2023-03-01T01:41:11;28.93;;;18.30;;
15216;SDS011;7711;46.634;14.318;2023-03-01T01:43:40;34.10;;;19.73;;
15216;SDS011;7711;46.634;14.318;2023-03-01T01:46:12;33.47;;;19.93;;
15216;SDS011;7711;46.634;14.318;2023-03-01T01:48:52;25.27;;;16.67;;
15216;SDS011;7711;46.634;14.318;2023-03-01T01:51:22;31.07;;;17.10;;
15216;SDS011;7711;46.634;14.318;2023-03-01T01:53:54;28.57;;;16.80;;
15216;SDS011;7711;46.634;14.318;2023-03-01T01:56:25;28.73;;;16.90;;
15216;SDS011;7711;46.634;14.318;2023-03-01T01:58:55;26.00;;;15.93;;
15216;SDS011;7711;46.634;14.318;2023-03-01T02:01:24;27.03;;;16.37;;
15216;SDS011;7711;46.634;14.318;2023-03-01T02:03:51;26.90;;;16.00;;
15216;SDS011;7711;46.634;14.318;2023-03-01T02:06:20;25.57;;;16.50;;
15216;SDS011;7711;46.634;14.318;2023-03-01T02:08:53;28.67;;;17.00;;
15216;SDS011;7711;46.634;14.318;2023-03-01T02:11:23;26.90;;;15.37;;
15216;SDS011;7711;46.634;14.318;2023-03-01T02:13:51;26.37;;;16.33;;
15216;SDS011;7711;46.634;14.318;2023-03-01T02:16:19;29.10;;;16.47;;
15216;SDS011;7711;46.634;14.318;2023-03-01T02:18:48;29.10;;;16.43;;
15216;SDS011;7711;46.634;14.318;2023-03-01T02:21:29;27.53;;;17.47;;
15216;SDS011;7711;46.634;14.318;2023-03-01T02:24:05;28.40;;;17.00;;
15216;SDS011;7711;46.634;14.318;2023-03-01T02:26:46;30.83;;;18.10;;
15216;SDS011;7711;46.634;14.318;2023-03-01T02:29:19;29.83;;;18.67;;
15216;SDS011;7711;46.634;14.318;2023-03-01T02:31:47;31.27;;;18.00;;
15216;SDS011;7711;46.634;14.318;2023-03-01T02:34:15;32.00;;;18.53;;
15216;SDS011;7711;46.634;14.318;2023-03-01T02:36:44;28.80;;;17.27;;
15216;SDS011;7711;46.634;14.318;2023-03-01T02:39:14;29.80;;;18.23;;
15216;SDS011;7711;46.634;14.318;2023-03-01T02:41:46;26.17;;;16.33;;
15216;SDS011;7711;46.634;14.318;2023-03-01T02:44:16;30.40;;;17.67;;
15216;SDS011;7711;46.634;14.318;2023-03-01T02:46:44;29.20;;;17.67;;
15216;SDS011;7711;46.634;14.318;2023-03-01T02:49:24;29.13;;;17.77;;
15216;SDS011;7711;46.634;14.318;2023-03-01T02:52:00;28.87;;;17.03;;
15216;SDS011;7711;46.634;14.318;2023-03-01T02:54:36;28.70;;;17.07;;
15216;SDS011;7711;46.634;14.318;2023-03-01T02:57:07;29.13;;;17.07;;
15216;SDS011;7711;46.634;14.318;2023-03-01T02:59:35;26.60;;;16.53;;
15216;SDS011;7711;46.634;14.318;2023-03-01T03:02:06;29.33;;;17.17;;
15216;SDS011;7711;46.634;14.318;2023-03-01T03:04:34;28.43;;;17.27;;
15216;SDS011;7711;46.634;14.318;2023-03-01T03:07:01;27.33;;;17.57;;
15216;SDS011;7711;46.634;14.318;2023-03-01T03:09:28;26.90;;;16.43;;
15216;SDS011;7711;46.634;14.318;2023-03-01T03:11:55;29.70;;;18.80;;
15216;SDS011;7711;46.634;14.318;2023-03-01T03:14:22;27.90;;;17.47;;
15216;SDS011;7711;46.634;14.318;2023-03-01T03:16:49;30.90;;;18.33;;
15216;SDS011;7711;46.634;14.318;2023-03-01T03:19:18;30.67;;;18.40;;
15216;SDS011;7711;46.634;14.318;2023-03-01T03:21:45;30.00;;;18.83;;
15216;SDS011;7711;46.634;14.318;2023-03-01T03:24:12;36.20;;;19.27;;
15216;SDS011;7711;46.634;14.318;2023-03-01T03:26:39;32.30;;;19.40;;
15216;SDS011;7711;46.634;14.318;2023-03-01T03:29:06;32.30;;;19.13;;
15216;SDS011;7711;46.634;14.318;2023-03-01T03:31:33;30.13;;;18.40;;
15216;SDS011;7711;46.634;14.318;2023-03-01T03:34:00;30.53;;;18.40;;
15216;SDS011;7711;46.634;14.318;2023-03-01T03:36:29;31.40;;;18.33;;
15216;SDS011;7711;46.634;14.318;2023-03-01T03:38:56;36.93;;;19.47;;
15216;SDS011;7711;46.634;14.318;2023-03-01T03:41:23;34.80;;;19.70;;
15216;SDS011;7711;46.634;14.318;2023-03-01T03:43:50;34.70;;;19.90;;
15216;SDS011;7711;46.634;14.318;2023-03-01T03:46:17;31.57;;;19.67;;
15216;SDS011;7711;46.634;14.318;2023-03-01T03:48:44;32.07;;;19.67;;
15216;SDS011;7711;46.634;14.318;2023-03-01T03:51:12;32.77;;;19.57;;
15216;SDS011;7711;46.634;14.318;2023-03-01T03:53:42;34.13;;;20.90;;
15216;SDS011;7711;46.634;14.318;2023-03-01T03:56:10;33.30;;;20.57;;
15216;SDS011;7711;46.634;14.318;2023-03-01T03:58:37;32.13;;;21.63;;
15216;SDS011;7711;46.634;14.318;2023-03-01T04:01:04;36.80;;;20.47;;
15216;SDS011;7711;46.634;14.318;2023-03-01T04:03:32;34.87;;;20.47;;
15216;SDS011;7711;46.634;14.318;2023-03-01T04:06:00;36.40;;;21.27;;
15216;SDS011;7711;46.634;14.318;2023-03-01T04:08:27;36.40;;;20.03;;
15216;SDS011;7711;46.634;14.318;2023-03-01T04:10:58;32.43;;;20.80;;
15216;SDS011;7711;46.634;14.318;2023-03-01T04:13:47;35.40;;;20.37;;
15216;SDS011;7711;46.634;14.318;2023-03-01T04:16:14;35.33;;;20.83;;
15216;SDS011;7711;46.634;14.318;2023-03-01T04:18:41;35.67;;;20.13;;
15216;SDS011;7711;46.634;14.318;2023-03-01T04:21:08;35.70;;;20.00;;
15216;SDS011;7711;46.634;14.318;2023-03-01T04:23:36;33.13;;;20.33;;
15216;SDS011;7711;46.634;14.318;2023-03-01T04:26:05;34.70;;;20.63;;
15216;SDS011;7711;46.634;14.318;2023-03-01T04:28:33;33.17;;;20.67;;
15216;SDS011;7711;46.634;14.318;2023-03-01T04:31:02;32.97;;;21.33;;
15216;SDS011;7711;46.634;14.318;2023-03-01T04:33:38;35.70;;;22.10;;
15216;SDS011;7711;46.634;14.318;2023-03-01T04:36:06;37.10;;;20.57;;
15216;SDS011;7711;46.634;14.318;2023-03-01T04:38:34;34.90;;;20.13;;
15216;SDS011;7711;46.634;14.318;2023-03-01T04:41:02;36.80;;;20.27;;
15216;SDS011;7711;46.634;14.318;2023-03-01T04:43:31;34.13;;;21.40;;
15216;SDS011;7711;46.634;14.318;2023-03-01T04:46:02;36.30;;;21.50;;
15216;SDS011;7711;46.634;14.318;2023-03-01T04:48:32;33.17;;;20.73;;
15216;SDS011;7711;46.634;14.318;2023-03-01T04:50:59;33.27;;;20.07;;
15216;SDS011;7711;46.634;14.318;2023-03-01T04:53:27;38.27;;;21.93;;
15216;SDS011;7711;46.634;14.318;2023-03-01T04:55:54;34.70;;;21.07;;
15216;SDS011;7711;46.634;14.318;2023-03-01T04:58:22;35.17;;;20.53;;
15216;SDS011;7711;46.634;14.318;2023-03-01T05:00:50;39.00;;;21.57;;
15216;SDS011;7711;46.634;14.318;2023-03-01T05:03:18;32.97;;;20.60;;
15216;SDS011;7711;46.634;14.318;2023-03-01T05:05:46;31.70;;;20.40;;
15216;SDS011;7711;46.634;14.318;2023-03-01T05:08:14;29.10;;;19.83;;
15216;SDS011;7711;46.634;14.318;2023-03-01T05:10:43;36.47;;;19.50;;
15216;SDS011;7711;46.634;14.318;2023-03-01T05:13:12;36.03;;;19.67;;
15216;SDS011;7711;46.634;14.318;2023-03-01T05:15:40;33.83;;;19.93;;
15216;SDS011;7711;46.634;14.318;2023-03-01T05:18:09;32.93;;;19.73;;
15216;SDS011;7711;46.634;14.318;2023-03-01T05:20:36;29.23;;;18.93;;
15216;SDS011;7711;46.634;14.318;2023-03-01T05:23:04;35.20;;;20.00;;
15216;SDS011;7711;46.634;14.318;2023-03-01T05:25:31;38.77;;;20.53;;
15216;SDS011;7711;46.634;14.318;2023-03-01T05:27:59;34.47;;;20.53;;
15216;SDS011;7711;46.634;14.318;2023-03-01T05:30:29;31.53;;;20.13;;
15216;SDS011;7711;46.634;14.318;2023-03-01T05:32:57;35.90;;;19.87;;
15216;SDS011;7711;46.634;14.318;2023-03-01T05:35:26;34.33;;;20.40;;
15216;SDS011;7711;46.634;14.318;2023-03-01T05:37:54;31.53;;;19.63;;
15216;SDS011;7711;46.634;14.318;2023-03-01T05:40:22;35.70;;;20.73;;
15216;SDS011;7711;46.634;14.318;2023-03-01T05:42:51;38.87;;;20.23;;
15216;SDS011;7711;46.634;14.318;2023-03-01T05:45:20;35.50;;;20.03;;
15216;SDS011;7711;46.634;14.318;2023-03-01T05:47:48;33.40;;;20.27;;
15216;SDS011;7711;46.634;14.318;2023-03-01T05:50:17;35.50;;;21.10;;
15216;SDS011;7711;46.634;14.318;2023-03-01T05:52:47;34.53;;;20.73;;
15216;SDS011;7711;46.634;14.318;2023-03-01T05:55:15;34.13;;;20.60;;
15216;SDS011;7711;46.634;14.318;2023-03-01T05:57:43;37.73;;;21.83;;
15216;SDS011;7711;46.634;14.318;2023-03-01T06:00:11;36.27;;;20.63;;
15216;SDS011;7711;46.634;14.318;2023-03-01T06:02:39;39.97;;;21.90;;
15216;SDS011;7711;46.634;14.318;2023-03-01T06:05:07;64.67;;;33.40;;
15216;SDS011;7711;46.634;14.318;2023-03-01T06:07:36;57.53;;;30.83;;
15216;SDS011;7711;46.634;14.318;2023-03-01T06:10:05;42.43;;;24.43;;
15216;SDS011;7711;46.634;14.318;2023-03-01T06:12:33;39.77;;;22.23;;
15216;SDS011;7711;46.634;14.318;2023-03-01T06:15:01;35.10;;;20.90;;
15216;SDS011;7711;46.634;14.318;2023-03-01T06:17:30;34.13;;;21.10;;
15216;SDS011;7711;46.634;14.318;2023-03-01T06:19:57;36.20;;;20.17;;
15216;SDS011;7711;46.634;14.318;2023-03-01T06:22:24;38.10;;;19.50;;
15216;SDS011;7711;46.634;14.318;2023-03-01T06:24:51;33.50;;;19.00;;
15216;SDS011;7711;46.634;14.318;2023-03-01T06:27:20;44.13;;;20.00;;
15216;SDS011;7711;46.634;14.318;2023-03-01T06:29:47;36.13;;;19.40;;
15216;SDS011;7711;46.634;14.318;2023-03-01T06:32:14;33.67;;;18.97;;
15216;SDS011;7711;46.634;14.318;2023-03-01T06:34:41;36.13;;;19.37;;
15216;SDS011;7711;46.634;14.318;2023-03-01T06:37:08;32.90;;;18.60;;
15216;SDS011;7711;46.634;14.318;2023-03-01T06:39:35;29.73;;;18.23;;
15216;SDS011;7711;46.634;14.318;2023-03-01T06:42:03;33.07;;;18.13;;
15216;SDS011;7711;46.634;14.318;2023-03-01T06:44:31;31.97;;;19.43;;
15216;SDS011;7711;46.634;14.318;2023-03-01T06:46:58;31.17;;;18.77;;
15216;SDS011;7711;46.634;14.318;2023-03-01T06:49:25;33.53;;;19.60;;
15216;SDS011;7711;46.634;14.318;2023-03-01T06:51:52;33.57;;;20.03;;
15216;SDS011;7711;46.634;14.318;2023-03-01T06:54:19;29.47;;;18.23;;
15216;SDS011;7711;46.634;14.318;2023-03-01T06:56:47;35.47;;;20.07;;
15216;SDS011;7711;46.634;14.318;2023-03-01T06:59:15;39.63;;;21.23;;
15216;SDS011;7711;46.634;14.318;2023-03-01T07:01:44;40.23;;;20.43;;
15216;SDS011;7711;46.634;14.318;2023-03-01T07:04:11;48.17;;;20.93;;
15216;SDS011;7711;46.634;14.318;2023-03-01T07:06:39;36.37;;;20.43;;
15216;SDS011;7711;46.634;14.318;2023-03-01T07:09:06;39.97;;;22.67;;
15216;SDS011;7711;46.634;14.318;2023-03-01T07:11:33;36.63;;;20.33;;
15216;SDS011;7711;46.634;14.318;2023-03-01T07:14:00;33.33;;;18.97;;
15216;SDS011;7711;46.634;14.318;2023-03-01T07:16:27;32.13;;;19.50;;
15216;SDS011;7711;46.634;14.318;2023-03-01T07:18:55;46.83;;;21.67;;
15216;SDS011;7711;46.634;14.318;2023-03-01T07:21:22;34.93;;;20.83;;
15216;SDS011;7711;46.634;14.318;2023-03-01T07:23:49;35.30;;;19.97;;
15216;SDS011;7711;46.634;14.318;2023-03-01T07:26:16;34.50;;;20.17;;
15216;SDS011;7711;46.634;14.318;2023-03-01T07:28:43;33.40;;;20.43;;
15216;SDS011;7711;46.634;14.318;2023-03-01T07:31:10;34.90;;;19.77;;
15216;SDS011;7711;46.634;14.318;2023-03-01T07:33:37;37.57;;;22.27;;
15216;SDS011;7711;46.634;14.318;2023-03-01T07:36:06;38.40;;;20.77;;
15216;SDS011;7711;46.634;14.318;2023-03-01T07:38:33;30.73;;;19.30;;
15216;SDS011;7711;46.634;14.318;2023-03-01T07:41:00;39.77;;;20.70;;
15216;SDS011;7711;46.634;14.318;2023-03-01T07:43:30;34.37;;;20.50;;
15216;SDS011;7711;46.634;14.318;2023-03-01T07:45:58;32.20;;;20.07;;
15216;SDS011;7711;46.634;14.318;2023-03-01T07:48:25;35.13;;;21.13;;
15216;SDS011;7711;46.634;14.318;2023-03-01T07:50:53;33.10;;;20.37;;
15216;SDS011;7711;46.634;14.318;2023-03-01T07:53:21;34.63;;;21.27;;
15216;SDS011;7711;46.634;14.318;2023-03-01T07:55:48;35.17;;;20.63;;
15216;SDS011;7711;46.634;14.318;2023-03-01T07:58:15;39.87;;;23.03;;
15216;SDS011;7711;46.634;14.318;2023-03-01T08:00:42;38.10;;;22.43;;
15216;SDS011;7711;46.634;14.318;2023-03-01T08:03:09;34.13;;;21.10;;
15216;SDS011;7711;46.634;14.318;2023-03-01T08:05:36;36.87;;;21.20;;
15216;SDS011;7711;46.634;14.318;2023-03-01T08:08:04;37.70;;;22.97;;
15216;SDS011;7711;46.634;14.318;2023-03-01T08:10:32;35.87;;;20.87;;
15216;SDS011;7711;46.634;14.318;2023-03-01T08:12:59;32.93;;;20.60;;
15216;SDS011;7711;46.634;14.318;2023-03-01T08:15:26;34.47;;;21.07;;
15216;SDS011;7711;46.634;14.318;2023-03-01T08:17:53;33.87;;;21.60;;
15216;SDS011;7711;46.634;14.318;2023-03-01T08:20:20;36.60;;;21.30;;
15216;SDS011;7711;46.634;14.318;2023-03-01T08:22:47;34.43;;;20.17;;
15216;SDS011;7711;46.634;14.318;2023-03-01T08:25:14;35.30;;;20.63;;
15216;SDS011;7711;46.634;14.318;2023-03-01T08:27:42;36.33;;;20.23;;
15216;SDS011;7711;46.634;14.318;2023-03-01T08:30:10;31.93;;;19.83;;
15216;SDS011;7711;46.634;14.318;2023-03-01T08:32:38;29.60;;;18.97;;
15216;SDS011;7711;46.634;14.318;2023-03-01T08:35:06;32.10;;;19.37;;
15216;SDS011;7711;46.634;14.318;2023-03-01T08:37:33;33.50;;;19.47;;
15216;SDS011;7711;46.634;14.318;2023-03-01T08:40:00;34.13;;;19.70;;
15216;SDS011;7711;46.634;14.318;2023-03-01T08:42:28;33.07;;;19.83;;
15216;SDS011;7711;46.634;14.318;2023-03-01T08:44:57;30.53;;;19.87;;
15216;SDS011;7711;46.634;14.318;2023-03-01T08:47:24;29.53;;;18.80;;
15216;SDS011;7711;46.634;14.318;2023-03-01T08:49:51;30.50;;;19.13;;
15216;SDS011;7711;46.634;14.318;2023-03-01T08:52:18;31.40;;;19.67;;
15216;SDS011;7711;46.634;14.318;2023-03-01T08:54:47;27.67;;;17.47;;
15216;SDS011;7711;46.634;14.318;2023-03-01T08:57:14;30.53;;;19.20;;
15216;SDS011;7711;46.634;14.318;2023-03-01T08:59:41;31.13;;;19.57;;
15216;SDS011;7711;46.634;14.318;2023-03-01T09:02:11;31.43;;;19.17;;
15216;SDS011;7711;46.634;14.318;2023-03-01T09:04:40;30.87;;;20.00;;
15216;SDS011;7711;46.634;14.318;2023-03-01T09:07:07;30.47;;;19.17;;
15216;SDS011;7711;46.634;14.318;2023-03-01T09:09:35;32.97;;;19.53;;
15216;SDS011;7711;46.634;14.318;2023-03-01T09:12:02;29.33;;;18.93;;
15216;SDS011;7711;46.634;14.318;2023-03-01T09:14:30;32.30;;;19.13;;
15216;SDS011;7711;46.634;14.318;2023-03-01T09:16:57;31.30;;;18.70;;
15216;SDS011;7711;46.634;14.318;2023-03-01T09:19:29;29.40;;;19.10;;
15216;SDS011;7711;46.634;14.318;2023-03-01T09:21:57;27.10;;;17.83;;
15216;SDS011;7711;46.634;14.318;2023-03-01T09:24:24;28.20;;;18.87;;
15216;SDS011;7711;46.634;14.318;2023-03-01T09:26:52;28.20;;;19.03;;
15216;SDS011;7711;46.634;14.318;2023-03-01T09:29:20;29.13;;;18.30;;
15216;SDS011;7711;46.634;14.318;2023-03-01T09:31:47;26.20;;;17.63;;
15216;SDS011;7711;46.634;14.318;2023-03-01T09:34:14;31.77;;;20.00;;
15216;SDS011;7711;46.634;14.318;2023-03-01T09:36:45;27.13;;;18.90;;
15216;SDS011;7711;46.634;14.318;2023-03-01T09:39:12;30.20;;;19.23;;
15216;SDS011;7711;46.634;14.318;2023-03-01T09:41:43;32.53;;;20.93;;
15216;SDS011;7711;46.634;14.318;2023-03-01T09:44:16;33.40;;;20.13;;
15216;SDS011;7711;46.634;14.318;2023-03-01T09:46:50;33.10;;;20.43;;
15216;SDS011;7711;46.634;14.318;2023-03-01T09:49:18;32.57;;;19.83;;
15216;SDS011;7711;46.634;14.318;2023-03-01T09:51:57;30.83;;;19.50;;
15216;SDS011;7711;46.634;14.318;2023-03-01T09:54:27;30.77;;;19.17;;
15216;SDS011;7711;46.634;14.318;2023-03-01T09:56:59;36.43;;;21.00;;
15216;SDS011;7711;46.634;14.318;2023-03-01T09:59:39;35.80;;;22.23;;
15216;SDS011;7711;46.634;14.318;2023-03-01T10:02:21;31.67;;;20.80;;
15216;SDS011;7711;46.634;14.318;2023-03-01T10:04:52;30.30;;;20.83;;
15216;SDS011;7711;46.634;14.318;2023-03-01T10:07:29;34.27;;;20.43;;
15216;SDS011;7711;46.634;14.318;2023-03-01T10:10:04;32.43;;;20.57;;
15216;SDS011;7711;46.634;14.318;2023-03-01T10:12:34;35.33;;;20.10;;
15216;SDS011;7711;46.634;14.318;2023-03-01T10:15:04;30.13;;;20.40;;
15216;SDS011;7711;46.634;14.318;2023-03-01T10:17:38;35.87;;;21.67;;
15216;SDS011;7711;46.634;14.318;2023-03-01T10:20:14;31.80;;;20.57;;
15216;SDS011;7711;46.634;14.318;2023-03-01T10:22:47;35.83;;;21.97;;
15216;SDS011;7711;46.634;14.318;2023-03-01T10:25:21;35.80;;;22.07;;
15216;SDS011;7711;46.634;14.318;2023-03-01T10:27:59;30.30;;;19.87;;
15216;SDS011;7711;46.634;14.318;2023-03-01T10:30:32;33.37;;;21.47;;
15216;SDS011;7711;46.634;14.318;2023-03-01T10:33:03;36.50;;;21.83;;
15216;SDS011;7711;46.634;14.318;2023-03-01T10:35:40;31.60;;;20.90;;
15216;SDS011;7711;46.634;14.318;2023-03-01T10:38:09;33.43;;;21.07;;
15216;SDS011;7711;46.634;14.318;2023-03-01T10:40:49;32.30;;;20.40;;
15216;SDS011;7711;46.634;14.318;2023-03-01T10:43:17;33.30;;;21.20;;
15216;SDS011;7711;46.634;14.318;2023-03-01T10:45:45;34.53;;;20.53;;
15216;SDS011;7711;46.634;14.318;2023-03-01T10:48:13;32.13;;;20.87;;
15216;SDS011;7711;46.634;14.318;2023-03-01T10:50:41;33.03;;;21.40;;
15216;SDS011;7711;46.634;14.318;2023-03-01T10:56:02;34.23;;;20.83;;
15216;SDS011;7711;46.634;14.318;2023-03-01T10:58:31;33.13;;;21.37;;
15216;SDS011;7711;46.634;14.318;2023-03-01T11:01:00;30.27;;;20.33;;
15216;SDS011;7711;46.634;14.318;2023-03-01T11:03:29;30.70;;;19.77;;
15216;SDS011;7711;46.634;14.318;2023-03-01T11:05:58;31.07;;;20.90;;
15216;SDS011;7711;46.634;14.318;2023-03-01T11:08:33;31.93;;;20.40;;
15216;SDS011;7711;46.634;14.318;2023-03-01T11:11:17;33.07;;;20.20;;
15216;SDS011;7711;46.634;14.318;2023-03-01T11:13:50;30.43;;;19.90;;
15216;SDS011;7711;46.634;14.318;2023-03-01T11:16:29;33.50;;;20.37;;
15216;SDS011;7711;46.634;14.318;2023-03-01T11:19:00;28.20;;;19.00;;
15216;SDS011;7711;46.634;14.318;2023-03-01T11:21:41;29.20;;;19.07;;
15216;SDS011;7711;46.634;14.318;2023-03-01T11:24:15;28.10;;;18.40;;
15216;SDS011;7711;46.634;14.318;2023-03-01T11:26:44;28.67;;;19.23;;
15216;SDS011;7711;46.634;14.318;2023-03-01T11:29:18;29.83;;;19.60;;
15216;SDS011;7711;46.634;14.318;2023-03-01T11:31:54;29.97;;;20.03;;
15216;SDS011;7711;46.634;14.318;2023-03-01T11:34:28;30.70;;;19.23;;
15216;SDS011;7711;46.634;14.318;2023-03-01T11:37:08;27.83;;;18.80;;
15216;SDS011;7711;46.634;14.318;2023-03-01T11:39:53;33.10;;;20.77;;
15216;SDS011;7711;46.634;14.318;2023-03-01T11:42:28;31.33;;;22.63;;
15216;SDS011;7711;46.634;14.318;2023-03-01T11:45:08;31.87;;;19.87;;
15216;SDS011;7711;46.634;14.318;2023-03-01T11:50:35;30.00;;;19.33;;
15216;SDS011;7711;46.634;14.318;2023-03-01T11:53:23;30.63;;;19.97;;
15216;SDS011;7711;46.634;14.318;2023-03-01T11:56:05;29.83;;;18.80;;
15216;SDS011;7711;46.634;14.318;2023-03-01T11:58:50;29.57;;;19.97;;
15216;SDS011;7711;46.634;14.318;2023-03-01T12:01:43;27.83;;;18.43;;
15216;SDS011;7711;46.634;14.318;2023-03-01T12:04:27;28.00;;;19.47;;
15216;SDS011;7711;46.634;14.318;2023-03-01T12:07:10;28.07;;;18.67;;
15216;SDS011;7711;46.634;14.318;2023-03-01T12:09:49;28.73;;;19.43;;
15216;SDS011;7711;46.634;14.318;2023-03-01T12:12:44;28.57;;;19.03;;
15216;SDS011;7711;46.634;14.318;2023-03-01T12:21:11;32.63;;;20.80;;
15216;SDS011;7711;46.634;14.318;2023-03-01T12:26:40;26.27;;;18.40;;
15216;SDS011;7711;46.634;14.318;2023-03-01T12:29:25;32.30;;;19.53;;
15216;SDS011;7711;46.634;14.318;2023-03-01T12:37:42;30.43;;;20.60;;
15216;SDS011;7711;46.634;14.318;2023-03-01T12:40:27;28.97;;;19.27;;
15216;SDS011;7711;46.634;14.318;2023-03-01T12:43:13;29.70;;;18.90;;
15216;SDS011;7711;46.634;14.318;2023-03-01T12:45:57;30.43;;;20.60;;
15216;SDS011;7711;46.634;14.318;2023-03-01T12:48:39;30.33;;;19.20;;
15216;SDS011;7711;46.634;14.318;2023-03-01T12:51:13;29.83;;;18.77;;
15216;SDS011;7711;46.634;14.318;2023-03-01T12:53:43;33.93;;;19.33;;
15216;SDS011;7711;46.634;14.318;2023-03-01T12:56:13;33.57;;;20.00;;
15216;SDS011;7711;46.634;14.318;2023-03-01T12:58:46;30.37;;;20.23;;
15216;SDS011;7711;46.634;14.318;2023-03-01T13:01:25;31.60;;;20.73;;
15216;SDS011;7711;46.634;14.318;2023-03-01T13:04:11;31.73;;;20.23;;
15216;SDS011;7711;46.634;14.318;2023-03-01T13:06:44;31.33;;;19.57;;
15216;SDS011;7711;46.634;14.318;2023-03-01T13:09:22;35.50;;;21.63;;
15216;SDS011;7711;46.634;14.318;2023-03-01T13:11:55;34.70;;;22.60;;
15216;SDS011;7711;46.634;14.318;2023-03-01T13:14:44;53.40;;;31.67;;
15216;SDS011;7711;46.634;14.318;2023-03-01T13:17:30;59.60;;;34.97;;
15216;SDS011;7711;46.634;14.318;2023-03-01T13:19:59;49.00;;;32.43;;
15216;SDS011;7711;46.634;14.318;2023-03-01T13:22:29;41.47;;;26.80;;
15216;SDS011;7711;46.634;14.318;2023-03-01T13:25:02;43.00;;;26.07;;
15216;SDS011;7711;46.634;14.318;2023-03-01T13:27:39;39.03;;;24.40;;
15216;SDS011;7711;46.634;14.318;2023-03-01T13:30:37;35.63;;;22.70;;
15216;SDS011;7711;46.634;14.318;2023-03-01T13:39:27;33.67;;;22.03;;
15216;SDS011;7711;46.634;14.318;2023-03-01T13:41:57;37.27;;;23.77;;
15216;SDS011;7711;46.634;14.318;2023-03-01T13:44:26;33.53;;;22.03;;
15216;SDS011;7711;46.634;14.318;2023-03-01T13:46:59;34.40;;;21.97;;
15216;SDS011;7711;46.634;14.318;2023-03-01T13:49:43;35.53;;;21.23;;
15216;SDS011;7711;46.634;14.318;2023-03-01T13:52:32;31.73;;;20.53;;
15216;SDS011;7711;46.634;14.318;2023-03-01T13:55:05;35.90;;;21.43;;
15216;SDS011;7711;46.634;14.318;2023-03-01T13:57:43;32.37;;;20.80;;
15216;SDS011;7711;46.634;14.318;2023-03-01T14:00:24;34.23;;;20.97;;
15216;SDS011;7711;46.634;14.318;2023-03-01T14:03:00;33.60;;;20.93;;
15216;SDS011;7711;46.634;14.318;2023-03-01T14:05:29;35.03;;;21.80;;
15216;SDS011;7711;46.634;14.318;2023-03-01T14:07:58;32.63;;;21.40;;
15216;SDS011;7711;46.634;14.318;2023-03-01T14:10:25;34.13;;;20.40;;
15216;SDS011;7711;46.634;14.318;2023-03-01T14:13:01;32.37;;;21.03;;
15216;SDS011;7711;46.634;14.318;2023-03-01T14:15:45;32.27;;;21.60;;
15216;SDS011;7711;46.634;14.318;2023-03-01T14:18:20;33.77;;;22.17;;
15216;SDS011;7711;46.634;14.318;2023-03-01T14:20:51;34.63;;;20.93;;
15216;SDS011;7711;46.634;14.318;2023-03-01T14:23:21;32.10;;;21.20;;
15216;SDS011;7711;46.634;14.318;2023-03-01T14:25:49;30.60;;;20.43;;
15216;SDS011;7711;46.634;14.318;2023-03-01T14:28:19;30.87;;;20.27;;
15216;SDS011;7711;46.634;14.318;2023-03-01T14:30:49;27.20;;;18.83;;
15216;SDS011;7711;46.634;14.318;2023-03-01T14:33:19;34.53;;;20.63;;
15216;SDS011;7711;46.634;14.318;2023-03-01T14:35:51;30.77;;;19.87;;
15216;SDS011;7711;46.634;14.318;2023-03-01T14:38:22;31.33;;;20.33;;
15216;SDS011;7711;46.634;14.318;2023-03-01T14:40:51;31.03;;;20.53;;
15216;SDS011;7711;46.634;14.318;2023-03-01T14:43:22;34.80;;;21.20;;
15216;SDS011;7711;46.634;14.318;2023-03-01T14:45:50;32.97;;;20.70;;
15216;SDS011;7711;46.634;14.318;2023-03-01T14:48:18;32.40;;;22.30;;
15216;SDS011;7711;46.634;14.318;2023-03-01T14:50:45;32.70;;;22.10;;
15216;SDS011;7711;46.634;14.318;2023-03-01T14:53:15;37.70;;;22.67;;
15216;SDS011;7711;46.634;14.318;2023-03-01T14:55:46;34.23;;;21.97;;
15216;SDS011;7711;46.634;14.318;2023-03-01T14:58:19;33.67;;;21.50;;
15216;SDS011;7711;46.634;14.318;2023-03-01T15:00:48;35.90;;;21.00;;
15216;SDS011;7711;46.634;14.318;2023-03-01T15:03:20;31.87;;;20.63;;
15216;SDS011;7711;46.634;14.318;2023-03-01T15:05:52;32.13;;;19.93;;